West Potsdam, New York
Current Conditions -  °F | °C
As of 8:53 AM on Thursday 23 Oct 2014 (Local Time) from KMSS Reporting Station
Broken Clouds Broken Clouds  
Wind Chill: 39°   Ceiling: 3900
Heat Index: 46°   Visibility: 10mi
Dew Point: 34°   Wind: 17mph
Humidity: 63%   Direction: 30°NNE
Pressure: 30.08"   Gusts: NA
Location:  44.6469°N, 74.9157°W
Report Text: KMSS 231253Z AUTO 03015KT 10SM SCT027 BKN039 BKN065 08/01 A3008 RMK AO2 SLP190 T00780011
Loading
Personal Weather Stations






























Interactive Weather Map
Tropical Storm Tracking
New forecast layout! Learn more

10-Day Weather Forecast

Advertisements
Track Severe Weather on mobile